sensor_id;sensor_type;location;lat;lon;timestamp;temperature;humidity
13310;DHT22;6723;48.256;16.402;2023-05-20T00:01:59;13.30;99.90
13310;DHT22;6723;48.256;16.402;2023-05-20T00:04:25;13.30;99.90
13310;DHT22;6723;48.256;16.402;2023-05-20T00:06:51;13.40;99.90
13310;DHT22;6723;48.256;16.402;2023-05-20T00:09:17;13.30;99.90
13310;DHT22;6723;48.256;16.402;2023-05-20T00:11:44;13.40;99.90
13310;DHT22;6723;48.256;16.402;2023-05-20T00:14:10;13.30;99.90
13310;DHT22;6723;48.256;16.402;2023-05-20T00:16:36;13.30;99.90
13310;DHT22;6723;48.256;16.402;2023-05-20T00:19:02;13.30;99.90
13310;DHT22;6723;48.256;16.402;2023-05-20T00:21:28;13.30;99.90
13310;DHT22;6723;48.256;16.402;2023-05-20T00:23:54;13.20;99.90
13310;DHT22;6723;48.256;16.402;2023-05-20T00:26:21;13.20;99.90
13310;DHT22;6723;48.256;16.402;2023-05-20T00:28:47;13.10;99.90
13310;DHT22;6723;48.256;16.402;2023-05-20T00:31:13;13.10;99.90
13310;DHT22;6723;48.256;16.402;2023-05-20T00:33:38;13.10;99.90
13310;DHT22;6723;48.256;16.402;2023-05-20T00:36:05;13.00;99.90
13310;DHT22;6723;48.256;16.402;2023-05-20T00:38:30;13.00;99.90
13310;DHT22;6723;48.256;16.402;2023-05-20T00:40:56;13.00;99.90
13310;DHT22;6723;48.256;16.402;2023-05-20T00:43:22;12.90;99.90
13310;DHT22;6723;48.256;16.402;2023-05-20T00:45:53;12.90;99.90
13310;DHT22;6723;48.256;16.402;2023-05-20T00:48:20;12.90;99.90
13310;DHT22;6723;48.256;16.402;2023-05-20T00:50:47;12.80;99.90
13310;DHT22;6723;48.256;16.402;2023-05-20T00:53:16;12.80;99.90
13310;DHT22;6723;48.256;16.402;2023-05-20T00:55:43;12.80;99.90
13310;DHT22;6723;48.256;16.402;2023-05-20T00:58:10;12.70;99.90
13310;DHT22;6723;48.256;16.402;2023-05-20T01:00:35;12.70;99.90
13310;DHT22;6723;48.256;16.402;2023-05-20T01:03:02;12.60;99.90
13310;DHT22;6723;48.256;16.402;2023-05-20T01:05:27;12.60;99.90
13310;DHT22;6723;48.256;16.402;2023-05-20T01:07:53;12.50;99.90
13310;DHT22;6723;48.256;16.402;2023-05-20T01:10:20;12.50;99.90
13310;DHT22;6723;48.256;16.402;2023-05-20T01:12:53;12.50;99.90
13310;DHT22;6723;48.256;16.402;2023-05-20T01:15:23;12.40;99.90
13310;DHT22;6723;48.256;16.402;2023-05-20T01:17:52;12.40;99.90
13310;DHT22;6723;48.256;16.402;2023-05-20T01:20:22;12.40;99.90
13310;DHT22;6723;48.256;16.402;2023-05-20T01:22:53;12.30;99.90
13310;DHT22;6723;48.256;16.402;2023-05-20T01:25:19;12.30;99.90
13310;DHT22;6723;48.256;16.402;2023-05-20T01:27:45;12.30;99.90
13310;DHT22;6723;48.256;16.402;2023-05-20T01:30:12;12.30;99.90
13310;DHT22;6723;48.256;16.402;2023-05-20T01:32:41;12.30;99.90
13310;DHT22;6723;48.256;16.402;2023-05-20T01:35:08;12.30;99.90
13310;DHT22;6723;48.256;16.402;2023-05-20T01:37:38;12.20;99.90
13310;DHT22;6723;48.256;16.402;2023-05-20T01:40:06;12.20;99.90
13310;DHT22;6723;48.256;16.402;2023-05-20T01:42:33;12.20;99.90
13310;DHT22;6723;48.256;16.402;2023-05-20T01:45:00;12.20;99.90
13310;DHT22;6723;48.256;16.402;2023-05-20T01:47:26;12.20;99.90
13310;DHT22;6723;48.256;16.402;2023-05-20T01:49:51;12.10;99.90
13310;DHT22;6723;48.256;16.402;2023-05-20T01:52:20;12.20;99.90
13310;DHT22;6723;48.256;16.402;2023-05-20T01:54:46;12.10;99.90
13310;DHT22;6723;48.256;16.402;2023-05-20T01:57:19;12.10;99.90
13310;DHT22;6723;48.256;16.402;2023-05-20T01:59:45;12.10;99.90
13310;DHT22;6723;48.256;16.402;2023-05-20T02:02:12;12.10;99.90
13310;DHT22;6723;48.256;16.402;2023-05-20T02:04:38;12.00;99.90
13310;DHT22;6723;48.256;16.402;2023-05-20T02:07:04;12.00;99.90
13310;DHT22;6723;48.256;16.402;2023-05-20T02:09:30;11.90;99.90
13310;DHT22;6723;48.256;16.402;2023-05-20T02:11:55;11.90;99.90
13310;DHT22;6723;48.256;16.402;2023-05-20T02:14:21;11.90;99.90
13310;DHT22;6723;48.256;16.402;2023-05-20T02:16:47;11.90;99.90
13310;DHT22;6723;48.256;16.402;2023-05-20T02:19:13;11.80;99.90
13310;DHT22;6723;48.256;16.402;2023-05-20T02:21:40;11.80;99.90
13310;DHT22;6723;48.256;16.402;2023-05-20T02:24:06;11.80;99.90
13310;DHT22;6723;48.256;16.402;2023-05-20T02:26:33;11.80;99.90
13310;DHT22;6723;48.256;16.402;2023-05-20T02:28:59;11.80;99.90
13310;DHT22;6723;48.256;16.402;2023-05-20T02:31:25;11.80;99.90
13310;DHT22;6723;48.256;16.402;2023-05-20T02:33:51;11.80;99.90
13310;DHT22;6723;48.256;16.402;2023-05-20T02:36:17;11.80;99.90
13310;DHT22;6723;48.256;16.402;2023-05-20T02:38:43;11.80;99.90
13310;DHT22;6723;48.256;16.402;2023-05-20T02:41:09;11.80;99.90
13310;DHT22;6723;48.256;16.402;2023-05-20T02:43:35;11.70;99.90
13310;DHT22;6723;48.256;16.402;2023-05-20T02:46:01;11.80;99.90
13310;DHT22;6723;48.256;16.402;2023-05-20T02:48:27;11.80;99.90
13310;DHT22;6723;48.256;16.402;2023-05-20T02:50:53;11.70;99.90
13310;DHT22;6723;48.256;16.402;2023-05-20T02:53:19;11.70;99.90
13310;DHT22;6723;48.256;16.402;2023-05-20T02:55:46;11.70;99.90
13310;DHT22;6723;48.256;16.402;2023-05-20T02:58:12;11.70;99.90
13310;DHT22;6723;48.256;16.402;2023-05-20T03:00:38;11.70;99.90
13310;DHT22;6723;48.256;16.402;2023-05-20T03:03:08;11.70;99.90
13310;DHT22;6723;48.256;16.402;2023-05-20T03:05:35;11.60;99.90
13310;DHT22;6723;48.256;16.402;2023-05-20T03:08:11;11.60;99.90
13310;DHT22;6723;48.256;16.402;2023-05-20T03:10:38;11.70;99.90
13310;DHT22;6723;48.256;16.402;2023-05-20T03:13:05;11.70;99.90
13310;DHT22;6723;48.256;16.402;2023-05-20T03:15:39;11.60;99.90
13310;DHT22;6723;48.256;16.402;2023-05-20T03:18:06;11.70;99.90
13310;DHT22;6723;48.256;16.402;2023-05-20T03:20:33;11.60;99.90
13310;DHT22;6723;48.256;16.402;2023-05-20T03:23:03;11.70;99.90
13310;DHT22;6723;48.256;16.402;2023-05-20T03:25:29;11.60;99.90
13310;DHT22;6723;48.256;16.402;2023-05-20T03:27:55;11.70;99.90
13310;DHT22;6723;48.256;16.402;2023-05-20T03:30:23;11.70;99.90
13310;DHT22;6723;48.256;16.402;2023-05-20T03:32:49;11.70;99.90
13310;DHT22;6723;48.256;16.402;2023-05-20T03:35:15;11.70;99.90
13310;DHT22;6723;48.256;16.402;2023-05-20T03:37:41;11.60;99.90
13310;DHT22;6723;48.256;16.402;2023-05-20T03:40:08;11.70;99.90
13310;DHT22;6723;48.256;16.402;2023-05-20T03:42:38;11.70;99.90
13310;DHT22;6723;48.256;16.402;2023-05-20T03:45:04;11.70;99.90
13310;DHT22;6723;48.256;16.402;2023-05-20T03:47:31;11.80;99.90
13310;DHT22;6723;48.256;16.402;2023-05-20T03:49:57;11.80;99.90
13310;DHT22;6723;48.256;16.402;2023-05-20T03:52:23;11.80;99.90
13310;DHT22;6723;48.256;16.402;2023-05-20T03:54:48;11.80;99.90
13310;DHT22;6723;48.256;16.402;2023-05-20T03:57:15;11.80;99.90
13310;DHT22;6723;48.256;16.402;2023-05-20T03:59:40;11.90;99.90
13310;DHT22;6723;48.256;16.402;2023-05-20T04:02:07;12.00;99.90
13310;DHT22;6723;48.256;16.402;2023-05-20T04:04:33;12.00;99.90
13310;DHT22;6723;48.256;16.402;2023-05-20T04:06:59;12.00;99.90
13310;DHT22;6723;48.256;16.402;2023-05-20T04:09:31;12.00;99.90
13310;DHT22;6723;48.256;16.402;2023-05-20T04:11:57;12.10;99.90
13310;DHT22;6723;48.256;16.402;2023-05-20T04:14:22;12.20;99.90
13310;DHT22;6723;48.256;16.402;2023-05-20T04:16:48;12.30;99.90
13310;DHT22;6723;48.256;16.402;2023-05-20T04:19:15;12.40;99.90
13310;DHT22;6723;48.256;16.402;2023-05-20T04:21:44;12.40;99.90
13310;DHT22;6723;48.256;16.402;2023-05-20T04:24:10;12.60;99.90
13310;DHT22;6723;48.256;16.402;2023-05-20T04:26:37;12.70;99.90
13310;DHT22;6723;48.256;16.402;2023-05-20T04:29:03;12.80;99.90
13310;DHT22;6723;48.256;16.402;2023-05-20T04:31:32;12.90;99.90
13310;DHT22;6723;48.256;16.402;2023-05-20T04:33:58;13.10;99.90
13310;DHT22;6723;48.256;16.402;2023-05-20T04:36:24;13.00;99.90
13310;DHT22;6723;48.256;16.402;2023-05-20T04:38:56;13.00;99.90
13310;DHT22;6723;48.256;16.402;2023-05-20T04:41:22;13.00;99.90
13310;DHT22;6723;48.256;16.402;2023-05-20T04:43:48;13.00;99.90
13310;DHT22;6723;48.256;16.402;2023-05-20T04:46:15;13.00;99.90
13310;DHT22;6723;48.256;16.402;2023-05-20T04:48:41;13.00;99.90
13310;DHT22;6723;48.256;16.402;2023-05-20T04:51:12;13.20;99.90
13310;DHT22;6723;48.256;16.402;2023-05-20T04:53:38;13.10;99.90
13310;DHT22;6723;48.256;16.402;2023-05-20T04:56:05;13.10;99.90
13310;DHT22;6723;48.256;16.402;2023-05-20T04:58:30;13.10;99.90
13310;DHT22;6723;48.256;16.402;2023-05-20T05:00:57;13.10;99.90
13310;DHT22;6723;48.256;16.402;2023-05-20T05:03:23;13.20;99.90
13310;DHT22;6723;48.256;16.402;2023-05-20T05:05:49;13.40;99.90
13310;DHT22;6723;48.256;16.402;2023-05-20T05:08:15;13.60;99.90
13310;DHT22;6723;48.256;16.402;2023-05-20T05:10:41;13.70;99.90
13310;DHT22;6723;48.256;16.402;2023-05-20T05:13:07;13.80;99.90
13310;DHT22;6723;48.256;16.402;2023-05-20T05:15:33;13.80;99.90
13310;DHT22;6723;48.256;16.402;2023-05-20T05:17:58;13.90;99.90
13310;DHT22;6723;48.256;16.402;2023-05-20T05:20:24;13.90;99.90
13310;DHT22;6723;48.256;16.402;2023-05-20T05:22:50;14.00;99.90
13310;DHT22;6723;48.256;16.402;2023-05-20T05:25:16;14.10;99.90
13310;DHT22;6723;48.256;16.402;2023-05-20T05:27:42;14.20;99.90
13310;DHT22;6723;48.256;16.402;2023-05-20T05:30:09;14.30;99.90
13310;DHT22;6723;48.256;16.402;2023-05-20T05:32:36;14.30;99.90
13310;DHT22;6723;48.256;16.402;2023-05-20T05:35:02;14.40;99.90
13310;DHT22;6723;48.256;16.402;2023-05-20T05:37:28;14.60;99.90
13310;DHT22;6723;48.256;16.402;2023-05-20T05:39:54;15.00;99.90
13310;DHT22;6723;48.256;16.402;2023-05-20T05:42:20;15.40;99.90
13310;DHT22;6723;48.256;16.402;2023-05-20T05:44:45;15.80;99.90
13310;DHT22;6723;48.256;16.402;2023-05-20T05:47:12;16.10;99.90
13310;DHT22;6723;48.256;16.402;2023-05-20T05:49:38;16.20;99.90
13310;DHT22;6723;48.256;16.402;2023-05-20T05:52:04;16.60;99.90
13310;DHT22;6723;48.256;16.402;2023-05-20T05:54:29;16.50;99.90
13310;DHT22;6723;48.256;16.402;2023-05-20T05:56:55;16.60;99.90
13310;DHT22;6723;48.256;16.402;2023-05-20T05:59:21;16.70;99.90
13310;DHT22;6723;48.256;16.402;2023-05-20T06:01:47;16.80;99.90
13310;DHT22;6723;48.256;16.402;2023-05-20T06:04:13;16.90;99.90
13310;DHT22;6723;48.256;16.402;2023-05-20T06:06:39;16.90;99.90
13310;DHT22;6723;48.256;16.402;2023-05-20T06:09:05;17.00;99.90
13310;DHT22;6723;48.256;16.402;2023-05-20T06:11:31;17.10;99.90
13310;DHT22;6723;48.256;16.402;2023-05-20T06:13:57;17.10;99.90
13310;DHT22;6723;48.256;16.402;2023-05-20T06:16:23;17.00;99.90
13310;DHT22;6723;48.256;16.402;2023-05-20T06:18:53;17.10;99.90
13310;DHT22;6723;48.256;16.402;2023-05-20T06:21:22;17.30;99.90
13310;DHT22;6723;48.256;16.402;2023-05-20T06:23:48;17.40;99.90
13310;DHT22;6723;48.256;16.402;2023-05-20T06:26:14;17.80;99.90
13310;DHT22;6723;48.256;16.402;2023-05-20T06:28:40;17.90;99.90
13310;DHT22;6723;48.256;16.402;2023-05-20T06:31:06;18.00;99.90
13310;DHT22;6723;48.256;16.402;2023-05-20T06:33:33;18.30;99.90
13310;DHT22;6723;48.256;16.402;2023-05-20T06:36:12;18.60;99.90
13310;DHT22;6723;48.256;16.402;2023-05-20T06:38:38;18.50;99.90
13310;DHT22;6723;48.256;16.402;2023-05-20T06:41:04;18.50;99.90
13310;DHT22;6723;48.256;16.402;2023-05-20T06:43:30;18.80;99.90
13310;DHT22;6723;48.256;16.402;2023-05-20T06:45:55;18.80;99.90
13310;DHT22;6723;48.256;16.402;2023-05-20T06:48:21;18.70;99.90
13310;DHT22;6723;48.256;16.402;2023-05-20T06:50:48;18.80;99.90
13310;DHT22;6723;48.256;16.402;2023-05-20T06:53:14;18.80;99.90
13310;DHT22;6723;48.256;16.402;2023-05-20T06:55:40;18.90;99.90
13310;DHT22;6723;48.256;16.402;2023-05-20T06:58:05;19.10;99.90
13310;DHT22;6723;48.256;16.402;2023-05-20T07:00:31;19.10;99.90
13310;DHT22;6723;48.256;16.402;2023-05-20T07:02:57;19.00;99.90
13310;DHT22;6723;48.256;16.402;2023-05-20T07:05:23;19.00;99.90
13310;DHT22;6723;48.256;16.402;2023-05-20T07:07:49;18.90;99.90
13310;DHT22;6723;48.256;16.402;2023-05-20T07:10:14;19.30;99.90
13310;DHT22;6723;48.256;16.402;2023-05-20T07:12:40;19.50;99.90
13310;DHT22;6723;48.256;16.402;2023-05-20T07:15:07;19.80;99.90
13310;DHT22;6723;48.256;16.402;2023-05-20T07:17:33;20.50;99.90
13310;DHT22;6723;48.256;16.402;2023-05-20T07:19:58;21.00;99.90
13310;DHT22;6723;48.256;16.402;2023-05-20T07:22:24;21.40;99.90
13310;DHT22;6723;48.256;16.402;2023-05-20T07:24:50;21.80;99.90
13310;DHT22;6723;48.256;16.402;2023-05-20T07:27:16;22.30;99.90
13310;DHT22;6723;48.256;16.402;2023-05-20T07:29:41;22.90;99.90
13310;DHT22;6723;48.256;16.402;2023-05-20T07:32:08;24.00;99.90
13310;DHT22;6723;48.256;16.402;2023-05-20T07:34:35;24.80;99.90
13310;DHT22;6723;48.256;16.402;2023-05-20T07:37:00;25.30;99.90
13310;DHT22;6723;48.256;16.402;2023-05-20T07:39:26;26.40;98.10
13310;DHT22;6723;48.256;16.402;2023-05-20T07:41:52;26.40;97.90
13310;DHT22;6723;48.256;16.402;2023-05-20T07:44:17;26.40;97.10
13310;DHT22;6723;48.256;16.402;2023-05-20T07:46:45;26.70;97.00
13310;DHT22;6723;48.256;16.402;2023-05-20T07:49:11;27.30;95.90
13310;DHT22;6723;48.256;16.402;2023-05-20T07:51:37;27.10;95.10
13310;DHT22;6723;48.256;16.402;2023-05-20T07:54:03;27.00;96.40
13310;DHT22;6723;48.256;16.402;2023-05-20T07:56:29;26.80;95.40
13310;DHT22;6723;48.256;16.402;2023-05-20T07:58:58;26.60;95.80
13310;DHT22;6723;48.256;16.402;2023-05-20T08:01:25;26.10;95.70
13310;DHT22;6723;48.256;16.402;2023-05-20T08:03:52;25.90;96.30
13310;DHT22;6723;48.256;16.402;2023-05-20T08:06:19;26.40;96.40
13310;DHT22;6723;48.256;16.402;2023-05-20T08:08:45;26.90;95.80
13310;DHT22;6723;48.256;16.402;2023-05-20T08:11:12;27.30;95.30
13310;DHT22;6723;48.256;16.402;2023-05-20T08:13:38;27.60;94.70
13310;DHT22;6723;48.256;16.402;2023-05-20T08:16:05;27.60;94.60
13310;DHT22;6723;48.256;16.402;2023-05-20T08:18:31;27.70;94.60
13310;DHT22;6723;48.256;16.402;2023-05-20T08:20:58;27.90;94.40
13310;DHT22;6723;48.256;16.402;2023-05-20T08:23:24;28.30;93.80
13310;DHT22;6723;48.256;16.402;2023-05-20T08:25:50;28.80;93.80
13310;DHT22;6723;48.256;16.402;2023-05-20T08:28:17;28.70;93.60
13310;DHT22;6723;48.256;16.402;2023-05-20T08:30:43;28.70;93.30
13310;DHT22;6723;48.256;16.402;2023-05-20T08:33:09;28.10;93.30
13310;DHT22;6723;48.256;16.402;2023-05-20T08:35:53;27.60;93.70
13310;DHT22;6723;48.256;16.402;2023-05-20T08:38:34;27.00;94.30
13310;DHT22;6723;48.256;16.402;2023-05-20T08:41:01;26.60;94.80
13310;DHT22;6723;48.256;16.402;2023-05-20T08:43:27;26.70;94.90
13310;DHT22;6723;48.256;16.402;2023-05-20T08:45:55;26.40;95.20
13310;DHT22;6723;48.256;16.402;2023-05-20T08:48:23;25.90;95.40
13310;DHT22;6723;48.256;16.402;2023-05-20T08:50:51;26.00;96.00
13310;DHT22;6723;48.256;16.402;2023-05-20T08:53:18;25.80;96.00
13310;DHT22;6723;48.256;16.402;2023-05-20T08:55:53;26.10;96.20
13310;DHT22;6723;48.256;16.402;2023-05-20T08:58:20;26.20;95.70
13310;DHT22;6723;48.256;16.402;2023-05-20T09:00:48;26.60;95.90
13310;DHT22;6723;48.256;16.402;2023-05-20T09:03:14;26.70;95.10
13310;DHT22;6723;48.256;16.402;2023-05-20T09:05:42;27.00;94.80
13310;DHT22;6723;48.256;16.402;2023-05-20T09:08:09;27.80;94.40
13310;DHT22;6723;48.256;16.402;2023-05-20T09:10:51;28.50;94.30
13310;DHT22;6723;48.256;16.402;2023-05-20T09:13:30;28.80;92.50
13310;DHT22;6723;48.256;16.402;2023-05-20T09:16:10;28.90;92.90
13310;DHT22;6723;48.256;16.402;2023-05-20T09:18:48;28.30;92.90
13310;DHT22;6723;48.256;16.402;2023-05-20T09:21:18;27.90;92.70
13310;DHT22;6723;48.256;16.402;2023-05-20T09:23:49;27.30;93.60
13310;DHT22;6723;48.256;16.402;2023-05-20T09:26:34;26.50;93.60
13310;DHT22;6723;48.256;16.402;2023-05-20T09:29:33;26.20;95.20
13310;DHT22;6723;48.256;16.402;2023-05-20T09:32:01;26.00;95.10
13310;DHT22;6723;48.256;16.402;2023-05-20T09:34:28;25.90;95.60
13310;DHT22;6723;48.256;16.402;2023-05-20T09:36:55;25.90;95.90
13310;DHT22;6723;48.256;16.402;2023-05-20T09:39:24;26.30;96.20
13310;DHT22;6723;48.256;16.402;2023-05-20T09:41:58;26.50;95.30
13310;DHT22;6723;48.256;16.402;2023-05-20T09:44:28;27.10;94.30
13310;DHT22;6723;48.256;16.402;2023-05-20T09:46:55;27.20;94.30
13310;DHT22;6723;48.256;16.402;2023-05-20T09:49:21;27.40;94.60
13310;DHT22;6723;48.256;16.402;2023-05-20T09:51:49;27.60;95.20
13310;DHT22;6723;48.256;16.402;2023-05-20T09:54:18;27.80;94.30
13310;DHT22;6723;48.256;16.402;2023-05-20T09:56:45;28.40;94.30
13310;DHT22;6723;48.256;16.402;2023-05-20T09:59:14;28.20;93.10
13310;DHT22;6723;48.256;16.402;2023-05-20T10:01:41;28.90;93.30
13310;DHT22;6723;48.256;16.402;2023-05-20T10:04:08;29.00;93.80
13310;DHT22;6723;48.256;16.402;2023-05-20T10:12:18;28.90;92.70
13310;DHT22;6723;48.256;16.402;2023-05-20T10:20:46;29.80;92.60
13310;DHT22;6723;48.256;16.402;2023-05-20T10:23:23;30.30;92.70
13310;DHT22;6723;48.256;16.402;2023-05-20T10:25:56;30.30;92.20
13310;DHT22;6723;48.256;16.402;2023-05-20T10:28:36;30.00;92.80
13310;DHT22;6723;48.256;16.402;2023-05-20T10:31:17;30.20;92.60
13310;DHT22;6723;48.256;16.402;2023-05-20T10:33:45;30.30;91.80
13310;DHT22;6723;48.256;16.402;2023-05-20T10:36:22;30.20;91.30
13310;DHT22;6723;48.256;16.402;2023-05-20T10:38:58;29.70;91.30
13310;DHT22;6723;48.256;16.402;2023-05-20T10:41:27;29.80;91.50
13310;DHT22;6723;48.256;16.402;2023-05-20T10:47:01;29.80;90.90
13310;DHT22;6723;48.256;16.402;2023-05-20T10:49:33;29.20;90.80
13310;DHT22;6723;48.256;16.402;2023-05-20T10:51:59;29.60;90.80
13310;DHT22;6723;48.256;16.402;2023-05-20T10:54:25;29.60;91.70
13310;DHT22;6723;48.256;16.402;2023-05-20T10:56:52;29.50;91.00
13310;DHT22;6723;48.256;16.402;2023-05-20T10:59:19;29.70;90.80
13310;DHT22;6723;48.256;16.402;2023-05-20T11:01:47;29.80;91.20
13310;DHT22;6723;48.256;16.402;2023-05-20T11:04:15;29.50;90.40
13310;DHT22;6723;48.256;16.402;2023-05-20T11:06:52;29.40;90.60
13310;DHT22;6723;48.256;16.402;2023-05-20T11:09:18;29.10;89.70
13310;DHT22;6723;48.256;16.402;2023-05-20T11:11:44;29.10;90.50
13310;DHT22;6723;48.256;16.402;2023-05-20T11:14:10;29.50;90.50
13310;DHT22;6723;48.256;16.402;2023-05-20T11:16:43;29.90;90.10
13310;DHT22;6723;48.256;16.402;2023-05-20T11:19:15;29.80;90.20
13310;DHT22;6723;48.256;16.402;2023-05-20T11:21:44;29.80;90.00
13310;DHT22;6723;48.256;16.402;2023-05-20T11:24:10;29.50;90.60
13310;DHT22;6723;48.256;16.402;2023-05-20T11:26:39;29.60;90.50
13310;DHT22;6723;48.256;16.402;2023-05-20T11:29:05;29.80;90.40
13310;DHT22;6723;48.256;16.402;2023-05-20T11:31:31;29.50;89.20
13310;DHT22;6723;48.256;16.402;2023-05-20T11:34:00;29.30;87.40
13310;DHT22;6723;48.256;16.402;2023-05-20T11:36:27;29.60;90.00
13310;DHT22;6723;48.256;16.402;2023-05-20T11:38:58;29.40;90.40
13310;DHT22;6723;48.256;16.402;2023-05-20T11:41:27;29.90;90.30
13310;DHT22;6723;48.256;16.402;2023-05-20T11:43:57;29.40;89.70
13310;DHT22;6723;48.256;16.402;2023-05-20T11:46:24;29.50;90.00
13310;DHT22;6723;48.256;16.402;2023-05-20T11:48:53;29.30;90.00
13310;DHT22;6723;48.256;16.402;2023-05-20T11:51:25;28.80;90.60
13310;DHT22;6723;48.256;16.402;2023-05-20T11:53:51;28.40;90.80
13310;DHT22;6723;48.256;16.402;2023-05-20T11:56:17;28.00;89.70
13310;DHT22;6723;48.256;16.402;2023-05-20T11:58:43;27.50;91.10
13310;DHT22;6723;48.256;16.402;2023-05-20T12:01:10;27.50;91.60
13310;DHT22;6723;48.256;16.402;2023-05-20T12:03:36;27.40;91.20
13310;DHT22;6723;48.256;16.402;2023-05-20T12:06:02;26.90;91.40
13310;DHT22;6723;48.256;16.402;2023-05-20T12:08:28;26.90;91.50
13310;DHT22;6723;48.256;16.402;2023-05-20T12:10:54;27.20;91.60
13310;DHT22;6723;48.256;16.402;2023-05-20T12:13:20;27.40;90.40
13310;DHT22;6723;48.256;16.402;2023-05-20T12:15:47;26.90;90.70
13310;DHT22;6723;48.256;16.402;2023-05-20T12:18:13;27.20;90.70
13310;DHT22;6723;48.256;16.402;2023-05-20T12:20:39;26.90;90.80
13310;DHT22;6723;48.256;16.402;2023-05-20T12:23:05;26.70;90.80
13310;DHT22;6723;48.256;16.402;2023-05-20T12:25:30;26.40;91.00
13310;DHT22;6723;48.256;16.402;2023-05-20T12:27:57;26.60;91.40
13310;DHT22;6723;48.256;16.402;2023-05-20T12:30:23;26.90;91.60
13310;DHT22;6723;48.256;16.402;2023-05-20T12:32:50;26.90;90.20
13310;DHT22;6723;48.256;16.402;2023-05-20T12:35:18;26.80;90.50
13310;DHT22;6723;48.256;16.402;2023-05-20T12:37:44;26.70;90.60
13310;DHT22;6723;48.256;16.402;2023-05-20T12:40:10;26.60;91.20
13310;DHT22;6723;48.256;16.402;2023-05-20T12:42:40;26.90;91.20
13310;DHT22;6723;48.256;16.402;2023-05-20T12:45:07;27.10;91.00
13310;DHT22;6723;48.256;16.402;2023-05-20T12:47:35;27.10;91.00
13310;DHT22;6723;48.256;16.402;2023-05-20T12:50:02;27.50;90.80
13310;DHT22;6723;48.256;16.402;2023-05-20T12:52:28;27.50;90.20
13310;DHT22;6723;48.256;16.402;2023-05-20T12:54:55;27.60;90.60
13310;DHT22;6723;48.256;16.402;2023-05-20T12:57:24;27.30;90.70
13310;DHT22;6723;48.256;16.402;2023-05-20T12:59:50;27.60;89.70
13310;DHT22;6723;48.256;16.402;2023-05-20T13:02:16;27.50;89.30
13310;DHT22;6723;48.256;16.402;2023-05-20T13:04:41;27.50;88.70
13310;DHT22;6723;48.256;16.402;2023-05-20T13:07:07;27.40;87.40
13310;DHT22;6723;48.256;16.402;2023-05-20T13:09:33;27.10;87.60
13310;DHT22;6723;48.256;16.402;2023-05-20T13:11:59;27.00;90.00
13310;DHT22;6723;48.256;16.402;2023-05-20T13:14:26;27.00;90.00
13310;DHT22;6723;48.256;16.402;2023-05-20T13:16:52;26.80;90.30
13310;DHT22;6723;48.256;16.402;2023-05-20T13:19:20;26.40;90.80
13310;DHT22;6723;48.256;16.402;2023-05-20T13:21:50;26.80;91.10
13310;DHT22;6723;48.256;16.402;2023-05-20T13:24:18;27.00;91.00
13310;DHT22;6723;48.256;16.402;2023-05-20T13:26:44;26.90;90.30
13310;DHT22;6723;48.256;16.402;2023-05-20T13:29:11;27.30;90.40
13310;DHT22;6723;48.256;16.402;2023-05-20T13:31:37;27.20;90.40
13310;DHT22;6723;48.256;16.402;2023-05-20T13:34:04;27.20;90.60
13310;DHT22;6723;48.256;16.402;2023-05-20T13:36:30;27.20;90.10
13310;DHT22;6723;48.256;16.402;2023-05-20T13:38:56;27.30;90.00
13310;DHT22;6723;48.256;16.402;2023-05-20T13:41:23;27.30;90.00
13310;DHT22;6723;48.256;16.402;2023-05-20T13:43:52;27.00;90.20
13310;DHT22;6723;48.256;16.402;2023-05-20T13:46:18;27.50;90.20
13310;DHT22;6723;48.256;16.402;2023-05-20T13:48:44;27.60;90.20
13310;DHT22;6723;48.256;16.402;2023-05-20T13:51:09;27.60;88.90
13310;DHT22;6723;48.256;16.402;2023-05-20T13:53:35;27.30;89.80
13310;DHT22;6723;48.256;16.402;2023-05-20T13:56:01;27.10;90.30
13310;DHT22;6723;48.256;16.402;2023-05-20T13:58:27;26.60;90.50
13310;DHT22;6723;48.256;16.402;2023-05-20T14:00:52;26.90;90.60
13310;DHT22;6723;48.256;16.402;2023-05-20T14:03:19;27.10;91.00
13310;DHT22;6723;48.256;16.402;2023-05-20T14:05:44;27.20;91.10
13310;DHT22;6723;48.256;16.402;2023-05-20T14:08:11;27.00;90.80
13310;DHT22;6723;48.256;16.402;2023-05-20T14:10:37;26.30;91.60
13310;DHT22;6723;48.256;16.402;2023-05-20T14:13:03;26.40;91.60
13310;DHT22;6723;48.256;16.402;2023-05-20T14:15:29;26.40;91.50
13310;DHT22;6723;48.256;16.402;2023-05-20T14:17:57;26.40;91.10
13310;DHT22;6723;48.256;16.402;2023-05-20T14:20:24;26.30;90.80
13310;DHT22;6723;48.256;16.402;2023-05-20T14:22:53;26.40;90.50
13310;DHT22;6723;48.256;16.402;2023-05-20T14:25:19;26.20;90.70
13310;DHT22;6723;48.256;16.402;2023-05-20T14:27:45;26.10;90.70
13310;DHT22;6723;48.256;16.402;2023-05-20T14:30:11;26.20;90.80
13310;DHT22;6723;48.256;16.402;2023-05-20T14:32:37;26.00;91.10
13310;DHT22;6723;48.256;16.402;2023-05-20T14:35:04;26.10;91.50
13310;DHT22;6723;48.256;16.402;2023-05-20T14:37:30;26.00;91.60
13310;DHT22;6723;48.256;16.402;2023-05-20T14:39:55;26.10;91.80
13310;DHT22;6723;48.256;16.402;2023-05-20T14:42:21;26.10;91.60
13310;DHT22;6723;48.256;16.402;2023-05-20T14:44:56;26.20;91.30
13310;DHT22;6723;48.256;16.402;2023-05-20T14:47:22;26.00;91.10
13310;DHT22;6723;48.256;16.402;2023-05-20T14:49:48;26.00;91.30
13310;DHT22;6723;48.256;16.402;2023-05-20T14:52:15;26.20;91.40
13310;DHT22;6723;48.256;16.402;2023-05-20T14:54:41;26.20;91.40
13310;DHT22;6723;48.256;16.402;2023-05-20T14:57:07;25.90;91.20
13310;DHT22;6723;48.256;16.402;2023-05-20T14:59:49;26.20;91.80
13310;DHT22;6723;48.256;16.402;2023-05-20T15:02:30;26.30;91.90
13310;DHT22;6723;48.256;16.402;2023-05-20T15:04:59;26.30;92.00
13310;DHT22;6723;48.256;16.402;2023-05-20T15:07:34;26.20;91.20
13310;DHT22;6723;48.256;16.402;2023-05-20T15:10:06;26.20;91.40
13310;DHT22;6723;48.256;16.402;2023-05-20T15:12:32;26.30;91.30
13310;DHT22;6723;48.256;16.402;2023-05-20T15:14:58;26.40;91.20
13310;DHT22;6723;48.256;16.402;2023-05-20T15:17:43;26.20;91.40
13310;DHT22;6723;48.256;16.402;2023-05-20T15:20:09;26.20;91.80
13310;DHT22;6723;48.256;16.402;2023-05-20T15:22:35;26.30;92.00
13310;DHT22;6723;48.256;16.402;2023-05-20T15:25:01;26.30;91.80
13310;DHT22;6723;48.256;16.402;2023-05-20T15:27:27;26.20;91.60
13310;DHT22;6723;48.256;16.402;2023-05-20T15:29:52;26.20;91.90
13310;DHT22;6723;48.256;16.402;2023-05-20T15:32:18;26.00;91.50
13310;DHT22;6723;48.256;16.402;2023-05-20T15:34:54;26.00;91.80
13310;DHT22;6723;48.256;16.402;2023-05-20T15:37:20;26.10;91.90
13310;DHT22;6723;48.256;16.402;2023-05-20T15:39:46;25.80;91.60
13310;DHT22;6723;48.256;16.402;2023-05-20T15:42:12;25.70;92.10
13310;DHT22;6723;48.256;16.402;2023-05-20T15:44:39;25.70;92.20
13310;DHT22;6723;48.256;16.402;2023-05-20T15:47:04;25.60;92.00